sensor_id;sensor_type;location;lat;lon;timestamp;P1;durP1;ratioP1;P2;durP2;ratioP2
43620;SDS011;29213;50.770;7.298;2024-02-21T00:00:01;8.27;;;4.38;;
43620;SDS011;29213;50.770;7.298;2024-02-21T00:02:27;9.35;;;4.20;;
43620;SDS011;29213;50.770;7.298;2024-02-21T00:04:52;9.95;;;4.38;;
43620;SDS011;29213;50.770;7.298;2024-02-21T00:07:18;8.77;;;4.35;;
43620;SDS011;29213;50.770;7.298;2024-02-21T00:09:43;11.07;;;4.45;;
43620;SDS011;29213;50.770;7.298;2024-02-21T00:12:09;10.65;;;5.10;;
43620;SDS011;29213;50.770;7.298;2024-02-21T00:14:34;12.20;;;4.95;;
43620;SDS011;29213;50.770;7.298;2024-02-21T00:16:59;8.77;;;4.53;;
43620;SDS011;29213;50.770;7.298;2024-02-21T00:19:25;8.48;;;4.15;;
43620;SDS011;29213;50.770;7.298;2024-02-21T00:21:50;11.45;;;5.40;;
43620;SDS011;29213;50.770;7.298;2024-02-21T00:24:16;10.05;;;4.88;;
43620;SDS011;29213;50.770;7.298;2024-02-21T00:26:41;9.90;;;4.80;;
43620;SDS011;29213;50.770;7.298;2024-02-21T00:29:07;10.57;;;4.55;;
43620;SDS011;29213;50.770;7.298;2024-02-21T00:31:32;9.15;;;4.03;;
43620;SDS011;29213;50.770;7.298;2024-02-21T00:33:57;8.27;;;4.00;;
43620;SDS011;29213;50.770;7.298;2024-02-21T00:36:23;8.48;;;4.05;;
43620;SDS011;29213;50.770;7.298;2024-02-21T00:38:48;8.60;;;4.15;;
43620;SDS011;29213;50.770;7.298;2024-02-21T00:41:14;10.95;;;5.30;;
43620;SDS011;29213;50.770;7.298;2024-02-21T00:43:39;10.45;;;4.80;;
43620;SDS011;29213;50.770;7.298;2024-02-21T00:46:05;10.52;;;4.57;;
43620;SDS011;29213;50.770;7.298;2024-02-21T00:48:31;11.35;;;4.43;;
43620;SDS011;29213;50.770;7.298;2024-02-21T00:50:56;10.50;;;4.93;;
43620;SDS011;29213;50.770;7.298;2024-02-21T00:53:22;11.80;;;5.15;;
43620;SDS011;29213;50.770;7.298;2024-02-21T00:55:47;13.38;;;5.50;;
43620;SDS011;29213;50.770;7.298;2024-02-21T00:58:12;10.13;;;4.80;;
43620;SDS011;29213;50.770;7.298;2024-02-21T01:00:38;10.32;;;5.00;;
43620;SDS011;29213;50.770;7.298;2024-02-21T01:03:03;8.30;;;4.40;;
43620;SDS011;29213;50.770;7.298;2024-02-21T01:05:29;8.05;;;4.20;;
43620;SDS011;29213;50.770;7.298;2024-02-21T01:07:54;9.75;;;4.10;;
43620;SDS011;29213;50.770;7.298;2024-02-21T01:10:20;8.90;;;4.28;;
43620;SDS011;29213;50.770;7.298;2024-02-21T01:12:45;9.52;;;4.10;;
43620;SDS011;29213;50.770;7.298;2024-02-21T01:15:11;11.10;;;4.80;;
43620;SDS011;29213;50.770;7.298;2024-02-21T01:17:37;10.73;;;5.03;;
43620;SDS011;29213;50.770;7.298;2024-02-21T01:20:03;9.70;;;4.40;;
43620;SDS011;29213;50.770;7.298;2024-02-21T01:22:30;11.38;;;4.55;;
43620;SDS011;29213;50.770;7.298;2024-02-21T01:24:56;9.00;;;4.45;;
43620;SDS011;29213;50.770;7.298;2024-02-21T01:27:21;9.30;;;4.72;;
43620;SDS011;29213;50.770;7.298;2024-02-21T01:29:47;9.27;;;4.78;;
43620;SDS011;29213;50.770;7.298;2024-02-21T01:32:14;11.85;;;4.72;;
43620;SDS011;29213;50.770;7.298;2024-02-21T01:34:40;9.70;;;4.38;;
43620;SDS011;29213;50.770;7.298;2024-02-21T01:37:06;11.95;;;4.72;;
43620;SDS011;29213;50.770;7.298;2024-02-21T01:39:32;12.48;;;4.70;;
43620;SDS011;29213;50.770;7.298;2024-02-21T01:41:58;8.85;;;4.38;;
43620;SDS011;29213;50.770;7.298;2024-02-21T01:44:24;11.07;;;4.50;;
43620;SDS011;29213;50.770;7.298;2024-02-21T01:46:49;10.40;;;4.60;;
43620;SDS011;29213;50.770;7.298;2024-02-21T01:49:16;12.30;;;4.75;;
43620;SDS011;29213;50.770;7.298;2024-02-21T01:51:41;9.35;;;4.13;;
43620;SDS011;29213;50.770;7.298;2024-02-21T01:54:07;10.77;;;4.60;;
43620;SDS011;29213;50.770;7.298;2024-02-21T01:56:34;8.45;;;3.85;;
43620;SDS011;29213;50.770;7.298;2024-02-21T01:59:00;9.50;;;4.18;;
43620;SDS011;29213;50.770;7.298;2024-02-21T02:01:25;8.60;;;4.28;;
43620;SDS011;29213;50.770;7.298;2024-02-21T02:03:51;10.35;;;4.43;;
43620;SDS011;29213;50.770;7.298;2024-02-21T02:06:17;9.93;;;4.50;;
43620;SDS011;29213;50.770;7.298;2024-02-21T02:08:43;9.05;;;4.20;;
43620;SDS011;29213;50.770;7.298;2024-02-21T02:11:08;9.05;;;3.88;;
43620;SDS011;29213;50.770;7.298;2024-02-21T02:13:35;13.13;;;4.40;;
43620;SDS011;29213;50.770;7.298;2024-02-21T02:16:00;9.10;;;4.05;;
43620;SDS011;29213;50.770;7.298;2024-02-21T02:18:25;9.32;;;3.97;;
43620;SDS011;29213;50.770;7.298;2024-02-21T02:20:51;9.65;;;4.85;;
43620;SDS011;29213;50.770;7.298;2024-02-21T02:23:26;7.97;;;4.00;;
43620;SDS011;29213;50.770;7.298;2024-02-21T02:25:54;11.18;;;4.28;;
43620;SDS011;29213;50.770;7.298;2024-02-21T02:28:20;9.50;;;4.20;;
43620;SDS011;29213;50.770;7.298;2024-02-21T02:30:46;11.05;;;4.43;;
43620;SDS011;29213;50.770;7.298;2024-02-21T02:33:12;9.63;;;4.22;;
43620;SDS011;29213;50.770;7.298;2024-02-21T02:35:38;10.93;;;4.32;;
43620;SDS011;29213;50.770;7.298;2024-02-21T02:38:04;11.05;;;4.40;;
43620;SDS011;29213;50.770;7.298;2024-02-21T02:40:30;9.48;;;3.88;;
43620;SDS011;29213;50.770;7.298;2024-02-21T02:42:56;11.65;;;4.45;;
43620;SDS011;29213;50.770;7.298;2024-02-21T02:45:22;12.10;;;4.57;;
43620;SDS011;29213;50.770;7.298;2024-02-21T02:47:49;10.18;;;4.00;;
43620;SDS011;29213;50.770;7.298;2024-02-21T02:50:14;12.30;;;4.35;;
43620;SDS011;29213;50.770;7.298;2024-02-21T02:52:40;10.43;;;4.43;;
43620;SDS011;29213;50.770;7.298;2024-02-21T02:55:05;10.75;;;3.80;;
43620;SDS011;29213;50.770;7.298;2024-02-21T02:57:31;9.77;;;3.95;;
43620;SDS011;29213;50.770;7.298;2024-02-21T02:59:57;10.20;;;4.07;;
43620;SDS011;29213;50.770;7.298;2024-02-21T03:02:23;10.77;;;4.25;;
43620;SDS011;29213;50.770;7.298;2024-02-21T03:04:48;13.27;;;4.35;;
43620;SDS011;29213;50.770;7.298;2024-02-21T03:07:14;8.30;;;3.80;;
43620;SDS011;29213;50.770;7.298;2024-02-21T03:09:40;13.02;;;4.80;;
43620;SDS011;29213;50.770;7.298;2024-02-21T03:12:07;9.55;;;4.53;;
43620;SDS011;29213;50.770;7.298;2024-02-21T03:14:33;9.55;;;3.65;;
43620;SDS011;29213;50.770;7.298;2024-02-21T03:16:59;8.75;;;3.90;;
43620;SDS011;29213;50.770;7.298;2024-02-21T03:19:24;11.82;;;4.13;;
43620;SDS011;29213;50.770;7.298;2024-02-21T03:21:50;7.55;;;3.90;;
43620;SDS011;29213;50.770;7.298;2024-02-21T03:24:17;9.68;;;4.25;;
43620;SDS011;29213;50.770;7.298;2024-02-21T03:26:43;8.50;;;3.78;;
43620;SDS011;29213;50.770;7.298;2024-02-21T03:29:10;10.48;;;4.07;;
43620;SDS011;29213;50.770;7.298;2024-02-21T03:31:36;11.43;;;3.90;;
43620;SDS011;29213;50.770;7.298;2024-02-21T03:34:02;10.82;;;3.90;;
43620;SDS011;29213;50.770;7.298;2024-02-21T03:36:27;7.10;;;3.83;;
43620;SDS011;29213;50.770;7.298;2024-02-21T03:38:54;11.65;;;4.05;;
43620;SDS011;29213;50.770;7.298;2024-02-21T03:41:20;7.60;;;3.85;;
43620;SDS011;29213;50.770;7.298;2024-02-21T03:43:45;11.07;;;4.20;;
43620;SDS011;29213;50.770;7.298;2024-02-21T03:46:11;8.63;;;3.80;;
43620;SDS011;29213;50.770;7.298;2024-02-21T03:48:36;9.02;;;3.80;;
43620;SDS011;29213;50.770;7.298;2024-02-21T03:51:02;10.90;;;4.00;;
43620;SDS011;29213;50.770;7.298;2024-02-21T03:53:27;9.93;;;4.10;;
43620;SDS011;29213;50.770;7.298;2024-02-21T03:55:53;10.23;;;3.67;;
43620;SDS011;29213;50.770;7.298;2024-02-21T03:58:19;10.40;;;3.78;;
43620;SDS011;29213;50.770;7.298;2024-02-21T04:00:45;11.15;;;3.72;;
43620;SDS011;29213;50.770;7.298;2024-02-21T04:03:10;9.82;;;3.60;;
43620;SDS011;29213;50.770;7.298;2024-02-21T04:05:36;9.85;;;3.72;;
43620;SDS011;29213;50.770;7.298;2024-02-21T04:08:04;8.23;;;3.63;;
43620;SDS011;29213;50.770;7.298;2024-02-21T04:10:30;8.77;;;3.60;;
43620;SDS011;29213;50.770;7.298;2024-02-21T04:12:55;8.23;;;3.00;;
43620;SDS011;29213;50.770;7.298;2024-02-21T04:15:22;9.23;;;4.25;;
43620;SDS011;29213;50.770;7.298;2024-02-21T04:17:47;8.23;;;3.50;;
43620;SDS011;29213;50.770;7.298;2024-02-21T04:20:16;8.50;;;3.47;;
43620;SDS011;29213;50.770;7.298;2024-02-21T04:22:45;7.88;;;3.20;;
43620;SDS011;29213;50.770;7.298;2024-02-21T04:25:11;8.77;;;3.80;;
43620;SDS011;29213;50.770;7.298;2024-02-21T04:27:38;7.50;;;3.20;;
43620;SDS011;29213;50.770;7.298;2024-02-21T04:30:04;8.10;;;3.42;;
43620;SDS011;29213;50.770;7.298;2024-02-21T04:32:30;8.07;;;3.10;;
43620;SDS011;29213;50.770;7.298;2024-02-21T04:34:55;7.72;;;3.33;;
43620;SDS011;29213;50.770;7.298;2024-02-21T04:37:20;9.02;;;3.33;;
43620;SDS011;29213;50.770;7.298;2024-02-21T04:39:46;9.23;;;3.92;;
43620;SDS011;29213;50.770;7.298;2024-02-21T04:42:11;10.90;;;3.58;;
43620;SDS011;29213;50.770;7.298;2024-02-21T04:44:37;8.82;;;3.47;;
43620;SDS011;29213;50.770;7.298;2024-02-21T04:47:03;8.75;;;3.67;;
43620;SDS011;29213;50.770;7.298;2024-02-21T04:49:28;10.88;;;3.92;;
43620;SDS011;29213;50.770;7.298;2024-02-21T04:51:54;9.45;;;3.35;;
43620;SDS011;29213;50.770;7.298;2024-02-21T04:54:20;8.45;;;3.42;;
43620;SDS011;29213;50.770;7.298;2024-02-21T04:56:45;8.55;;;3.45;;
43620;SDS011;29213;50.770;7.298;2024-02-21T04:59:11;10.38;;;3.42;;
43620;SDS011;29213;50.770;7.298;2024-02-21T05:01:36;8.18;;;3.55;;
43620;SDS011;29213;50.770;7.298;2024-02-21T05:04:01;5.65;;;3.03;;
43620;SDS011;29213;50.770;7.298;2024-02-21T05:06:27;8.05;;;3.13;;
43620;SDS011;29213;50.770;7.298;2024-02-21T05:08:53;10.27;;;3.72;;
43620;SDS011;29213;50.770;7.298;2024-02-21T05:11:20;9.80;;;3.15;;
43620;SDS011;29213;50.770;7.298;2024-02-21T05:13:48;7.88;;;3.10;;
43620;SDS011;29213;50.770;7.298;2024-02-21T05:16:14;8.57;;;3.17;;
43620;SDS011;29213;50.770;7.298;2024-02-21T05:18:40;8.85;;;3.10;;
43620;SDS011;29213;50.770;7.298;2024-02-21T05:21:05;10.55;;;3.67;;
43620;SDS011;29213;50.770;7.298;2024-02-21T05:23:31;8.75;;;2.97;;
43620;SDS011;29213;50.770;7.298;2024-02-21T05:25:56;7.82;;;2.95;;
43620;SDS011;29213;50.770;7.298;2024-02-21T05:28:21;7.38;;;3.13;;
43620;SDS011;29213;50.770;7.298;2024-02-21T05:30:47;9.90;;;3.30;;
43620;SDS011;29213;50.770;7.298;2024-02-21T05:33:12;8.27;;;3.17;;
43620;SDS011;29213;50.770;7.298;2024-02-21T05:35:38;6.93;;;3.08;;
43620;SDS011;29213;50.770;7.298;2024-02-21T05:38:03;7.85;;;3.13;;
43620;SDS011;29213;50.770;7.298;2024-02-21T05:40:33;8.33;;;2.83;;
43620;SDS011;29213;50.770;7.298;2024-02-21T05:42:58;9.70;;;3.35;;
43620;SDS011;29213;50.770;7.298;2024-02-21T05:45:23;10.07;;;3.72;;
43620;SDS011;29213;50.770;7.298;2024-02-21T05:47:49;5.65;;;3.10;;
43620;SDS011;29213;50.770;7.298;2024-02-21T05:50:15;6.60;;;2.83;;
43620;SDS011;29213;50.770;7.298;2024-02-21T05:52:40;8.00;;;3.00;;
43620;SDS011;29213;50.770;7.298;2024-02-21T05:55:06;7.70;;;3.25;;
43620;SDS011;29213;50.770;7.298;2024-02-21T05:57:32;9.07;;;3.22;;
43620;SDS011;29213;50.770;7.298;2024-02-21T05:59:57;7.05;;;3.03;;
43620;SDS011;29213;50.770;7.298;2024-02-21T06:02:23;9.05;;;3.10;;
43620;SDS011;29213;50.770;7.298;2024-02-21T06:04:48;8.02;;;3.13;;
43620;SDS011;29213;50.770;7.298;2024-02-21T06:07:13;8.63;;;3.22;;
43620;SDS011;29213;50.770;7.298;2024-02-21T06:09:39;7.65;;;3.22;;
43620;SDS011;29213;50.770;7.298;2024-02-21T06:12:04;9.27;;;3.38;;
43620;SDS011;29213;50.770;7.298;2024-02-21T06:14:30;6.78;;;3.08;;
43620;SDS011;29213;50.770;7.298;2024-02-21T06:16:55;8.68;;;3.40;;
43620;SDS011;29213;50.770;7.298;2024-02-21T06:19:20;10.75;;;3.50;;
43620;SDS011;29213;50.770;7.298;2024-02-21T06:21:46;7.55;;;3.38;;
43620;SDS011;29213;50.770;7.298;2024-02-21T06:24:11;11.27;;;3.58;;
43620;SDS011;29213;50.770;7.298;2024-02-21T06:26:37;7.93;;;2.97;;
43620;SDS011;29213;50.770;7.298;2024-02-21T06:29:05;8.40;;;3.15;;
43620;SDS011;29213;50.770;7.298;2024-02-21T06:31:30;9.77;;;3.55;;
43620;SDS011;29213;50.770;7.298;2024-02-21T06:33:57;11.07;;;3.60;;
43620;SDS011;29213;50.770;7.298;2024-02-21T06:36:22;9.50;;;3.60;;
43620;SDS011;29213;50.770;7.298;2024-02-21T06:38:47;7.68;;;3.42;;
43620;SDS011;29213;50.770;7.298;2024-02-21T06:41:16;8.60;;;3.40;;
43620;SDS011;29213;50.770;7.298;2024-02-21T06:43:48;7.78;;;3.13;;
43620;SDS011;29213;50.770;7.298;2024-02-21T06:46:23;7.72;;;3.00;;
43620;SDS011;29213;50.770;7.298;2024-02-21T06:48:50;8.13;;;3.40;;
43620;SDS011;29213;50.770;7.298;2024-02-21T06:51:15;7.63;;;3.53;;
43620;SDS011;29213;50.770;7.298;2024-02-21T06:53:41;9.95;;;3.53;;
43620;SDS011;29213;50.770;7.298;2024-02-21T06:56:09;7.85;;;3.00;;
43620;SDS011;29213;50.770;7.298;2024-02-21T06:58:35;7.32;;;3.30;;
43620;SDS011;29213;50.770;7.298;2024-02-21T07:01:00;10.48;;;3.45;;
43620;SDS011;29213;50.770;7.298;2024-02-21T07:03:27;9.10;;;3.65;;
43620;SDS011;29213;50.770;7.298;2024-02-21T07:05:52;7.70;;;3.08;;
43620;SDS011;29213;50.770;7.298;2024-02-21T07:08:18;6.53;;;2.88;;
43620;SDS011;29213;50.770;7.298;2024-02-21T07:10:43;9.52;;;3.97;;
43620;SDS011;29213;50.770;7.298;2024-02-21T07:13:08;8.98;;;3.40;;
43620;SDS011;29213;50.770;7.298;2024-02-21T07:15:34;7.93;;;3.13;;
43620;SDS011;29213;50.770;7.298;2024-02-21T07:18:01;7.60;;;3.35;;
43620;SDS011;29213;50.770;7.298;2024-02-21T07:20:26;8.73;;;3.33;;
43620;SDS011;29213;50.770;7.298;2024-02-21T07:22:52;7.43;;;3.28;;
43620;SDS011;29213;50.770;7.298;2024-02-21T07:25:17;7.82;;;3.25;;
43620;SDS011;29213;50.770;7.298;2024-02-21T07:27:43;8.48;;;3.35;;
43620;SDS011;29213;50.770;7.298;2024-02-21T07:30:09;11.40;;;3.47;;
43620;SDS011;29213;50.770;7.298;2024-02-21T07:32:35;7.00;;;2.85;;
43620;SDS011;29213;50.770;7.298;2024-02-21T07:35:01;11.70;;;3.33;;
43620;SDS011;29213;50.770;7.298;2024-02-21T07:37:26;9.15;;;3.00;;
43620;SDS011;29213;50.770;7.298;2024-02-21T07:39:52;10.05;;;3.20;;
43620;SDS011;29213;50.770;7.298;2024-02-21T07:42:17;9.23;;;3.60;;
43620;SDS011;29213;50.770;7.298;2024-02-21T07:44:43;9.95;;;3.33;;
43620;SDS011;29213;50.770;7.298;2024-02-21T07:47:08;7.22;;;3.03;;
43620;SDS011;29213;50.770;7.298;2024-02-21T07:49:40;7.85;;;3.28;;
43620;SDS011;29213;50.770;7.298;2024-02-21T07:52:06;9.98;;;3.97;;
43620;SDS011;29213;50.770;7.298;2024-02-21T07:54:31;8.18;;;3.35;;
43620;SDS011;29213;50.770;7.298;2024-02-21T07:56:56;11.77;;;4.07;;
43620;SDS011;29213;50.770;7.298;2024-02-21T07:59:22;9.57;;;3.92;;
43620;SDS011;29213;50.770;7.298;2024-02-21T08:01:47;12.95;;;4.13;;
43620;SDS011;29213;50.770;7.298;2024-02-21T08:04:12;10.15;;;3.70;;
43620;SDS011;29213;50.770;7.298;2024-02-21T08:06:38;10.50;;;3.63;;
43620;SDS011;29213;50.770;7.298;2024-02-21T08:09:03;9.68;;;3.83;;
43620;SDS011;29213;50.770;7.298;2024-02-21T08:11:29;13.20;;;4.32;;
43620;SDS011;29213;50.770;7.298;2024-02-21T08:13:55;10.32;;;3.58;;
43620;SDS011;29213;50.770;7.298;2024-02-21T08:16:20;9.43;;;3.85;;
43620;SDS011;29213;50.770;7.298;2024-02-21T08:18:45;8.40;;;3.63;;
43620;SDS011;29213;50.770;7.298;2024-02-21T08:21:11;9.18;;;3.72;;
43620;SDS011;29213;50.770;7.298;2024-02-21T08:23:36;10.02;;;3.70;;
43620;SDS011;29213;50.770;7.298;2024-02-21T08:26:05;10.65;;;3.70;;
43620;SDS011;29213;50.770;7.298;2024-02-21T08:28:30;8.07;;;3.53;;
43620;SDS011;29213;50.770;7.298;2024-02-21T08:30:56;10.02;;;3.30;;
43620;SDS011;29213;50.770;7.298;2024-02-21T08:33:21;9.30;;;3.85;;
43620;SDS011;29213;50.770;7.298;2024-02-21T08:35:51;11.88;;;4.18;;
43620;SDS011;29213;50.770;7.298;2024-02-21T08:38:16;8.55;;;3.30;;
43620;SDS011;29213;50.770;7.298;2024-02-21T08:40:42;10.10;;;3.75;;
43620;SDS011;29213;50.770;7.298;2024-02-21T08:43:07;6.25;;;3.40;;
43620;SDS011;29213;50.770;7.298;2024-02-21T08:45:33;9.13;;;3.50;;
43620;SDS011;29213;50.770;7.298;2024-02-21T08:47:58;8.38;;;3.75;;
43620;SDS011;29213;50.770;7.298;2024-02-21T08:50:23;9.88;;;3.83;;
43620;SDS011;29213;50.770;7.298;2024-02-21T08:52:49;8.25;;;3.47;;
43620;SDS011;29213;50.770;7.298;2024-02-21T08:55:14;9.65;;;3.38;;
43620;SDS011;29213;50.770;7.298;2024-02-21T08:57:40;9.93;;;3.33;;
43620;SDS011;29213;50.770;7.298;2024-02-21T09:00:06;8.13;;;3.55;;
43620;SDS011;29213;50.770;7.298;2024-02-21T09:02:39;11.35;;;3.88;;
43620;SDS011;29213;50.770;7.298;2024-02-21T09:05:05;11.50;;;3.22;;
43620;SDS011;29213;50.770;7.298;2024-02-21T09:07:31;8.02;;;3.45;;
43620;SDS011;29213;50.770;7.298;2024-02-21T09:09:57;11.00;;;3.65;;
43620;SDS011;29213;50.770;7.298;2024-02-21T09:12:22;9.75;;;3.58;;
43620;SDS011;29213;50.770;7.298;2024-02-21T09:14:48;10.35;;;3.47;;
43620;SDS011;29213;50.770;7.298;2024-02-21T09:17:16;9.32;;;3.72;;
43620;SDS011;29213;50.770;7.298;2024-02-21T09:19:46;8.90;;;3.50;;
43620;SDS011;29213;50.770;7.298;2024-02-21T09:22:12;8.40;;;3.40;;
43620;SDS011;29213;50.770;7.298;2024-02-21T09:24:38;6.97;;;3.10;;
43620;SDS011;29213;50.770;7.298;2024-02-21T09:27:03;7.93;;;3.20;;
43620;SDS011;29213;50.770;7.298;2024-02-21T09:29:29;7.60;;;2.85;;
43620;SDS011;29213;50.770;7.298;2024-02-21T09:31:54;10.23;;;3.60;;
43620;SDS011;29213;50.770;7.298;2024-02-21T09:34:19;8.95;;;3.60;;
43620;SDS011;29213;50.770;7.298;2024-02-21T09:36:45;9.00;;;3.35;;
43620;SDS011;29213;50.770;7.298;2024-02-21T09:39:10;9.57;;;3.80;;
43620;SDS011;29213;50.770;7.298;2024-02-21T09:41:45;11.20;;;4.30;;
43620;SDS011;29213;50.770;7.298;2024-02-21T09:44:17;8.23;;;3.50;;
43620;SDS011;29213;50.770;7.298;2024-02-21T09:51:58;7.40;;;3.17;;
43620;SDS011;29213;50.770;7.298;2024-02-21T09:54:28;9.02;;;3.67;;
43620;SDS011;29213;50.770;7.298;2024-02-21T09:56:55;9.60;;;3.28;;
43620;SDS011;29213;50.770;7.298;2024-02-21T09:59:20;7.85;;;3.10;;
43620;SDS011;29213;50.770;7.298;2024-02-21T10:01:47;11.35;;;3.78;;
43620;SDS011;29213;50.770;7.298;2024-02-21T10:04:12;8.40;;;3.45;;
43620;SDS011;29213;50.770;7.298;2024-02-21T10:06:38;11.75;;;3.45;;
43620;SDS011;29213;50.770;7.298;2024-02-21T10:09:05;10.77;;;3.63;;
43620;SDS011;29213;50.770;7.298;2024-02-21T10:11:31;10.15;;;3.58;;
43620;SDS011;29213;50.770;7.298;2024-02-21T10:14:06;9.07;;;3.30;;
43620;SDS011;29213;50.770;7.298;2024-02-21T10:16:32;9.75;;;3.13;;
43620;SDS011;29213;50.770;7.298;2024-02-21T10:18:58;9.20;;;3.20;;
43620;SDS011;29213;50.770;7.298;2024-02-21T10:21:24;8.73;;;3.22;;
43620;SDS011;29213;50.770;7.298;2024-02-21T10:23:50;8.98;;;3.22;;
43620;SDS011;29213;50.770;7.298;2024-02-21T10:26:16;5.85;;;3.05;;
43620;SDS011;29213;50.770;7.298;2024-02-21T10:28:43;8.93;;;3.17;;
43620;SDS011;29213;50.770;7.298;2024-02-21T10:31:10;10.30;;;3.90;;
43620;SDS011;29213;50.770;7.298;2024-02-21T10:33:36;10.27;;;3.28;;
43620;SDS011;29213;50.770;7.298;2024-02-21T10:36:09;8.82;;;3.40;;
43620;SDS011;29213;50.770;7.298;2024-02-21T10:38:36;9.90;;;3.30;;
43620;SDS011;29213;50.770;7.298;2024-02-21T10:41:02;8.77;;;3.20;;
43620;SDS011;29213;50.770;7.298;2024-02-21T10:43:30;8.73;;;3.45;;
43620;SDS011;29213;50.770;7.298;2024-02-21T10:46:09;6.07;;;2.40;;
43620;SDS011;29213;50.770;7.298;2024-02-21T10:48:42;9.55;;;3.53;;
43620;SDS011;29213;50.770;7.298;2024-02-21T10:51:18;7.28;;;3.00;;
43620;SDS011;29213;50.770;7.298;2024-02-21T10:58:49;8.90;;;3.20;;
43620;SDS011;29213;50.770;7.298;2024-02-21T11:01:15;10.38;;;3.33;;
43620;SDS011;29213;50.770;7.298;2024-02-21T11:03:43;7.35;;;3.00;;
43620;SDS011;29213;50.770;7.298;2024-02-21T11:06:10;6.57;;;2.83;;
43620;SDS011;29213;50.770;7.298;2024-02-21T11:08:37;9.60;;;3.47;;
43620;SDS011;29213;50.770;7.298;2024-02-21T11:11:03;8.95;;;3.30;;
43620;SDS011;29213;50.770;7.298;2024-02-21T11:13:39;7.75;;;3.00;;
43620;SDS011;29213;50.770;7.298;2024-02-21T11:16:09;7.82;;;2.83;;
43620;SDS011;29213;50.770;7.298;2024-02-21T11:18:36;7.75;;;2.95;;
43620;SDS011;29213;50.770;7.298;2024-02-21T11:21:02;9.85;;;3.13;;
43620;SDS011;29213;50.770;7.298;2024-02-21T11:23:30;7.95;;;3.10;;
43620;SDS011;29213;50.770;7.298;2024-02-21T11:26:08;11.13;;;3.00;;
43620;SDS011;29213;50.770;7.298;2024-02-21T11:28:35;6.37;;;2.40;;
43620;SDS011;29213;50.770;7.298;2024-02-21T11:31:07;8.32;;;3.08;;
43620;SDS011;29213;50.770;7.298;2024-02-21T11:33:41;7.80;;;2.90;;
43620;SDS011;29213;50.770;7.298;2024-02-21T11:36:09;8.00;;;3.00;;
43620;SDS011;29213;50.770;7.298;2024-02-21T11:38:35;9.05;;;3.45;;
43620;SDS011;29213;50.770;7.298;2024-02-21T11:41:01;9.00;;;3.13;;
43620;SDS011;29213;50.770;7.298;2024-02-21T11:43:27;8.88;;;3.20;;
43620;SDS011;29213;50.770;7.298;2024-02-21T11:45:59;8.82;;;3.00;;
43620;SDS011;29213;50.770;7.298;2024-02-21T11:48:28;5.90;;;2.80;;
43620;SDS011;29213;50.770;7.298;2024-02-21T11:50:55;7.97;;;2.97;;
43620;SDS011;29213;50.770;7.298;2024-02-21T11:53:21;7.78;;;2.70;;
43620;SDS011;29213;50.770;7.298;2024-02-21T11:55:46;6.97;;;2.78;;
43620;SDS011;29213;50.770;7.298;2024-02-21T11:58:12;10.80;;;2.97;;
43620;SDS011;29213;50.770;7.298;2024-02-21T12:00:37;6.93;;;2.80;;
43620;SDS011;29213;50.770;7.298;2024-02-21T12:03:03;8.57;;;3.10;;
43620;SDS011;29213;50.770;7.298;2024-02-21T12:05:29;6.90;;;2.80;;
43620;SDS011;29213;50.770;7.298;2024-02-21T12:07:55;11.23;;;3.40;;
43620;SDS011;29213;50.770;7.298;2024-02-21T12:10:23;6.25;;;2.47;;
43620;SDS011;29213;50.770;7.298;2024-02-21T12:12:51;8.70;;;3.20;;
43620;SDS011;29213;50.770;7.298;2024-02-21T12:15:17;9.30;;;3.10;;
43620;SDS011;29213;50.770;7.298;2024-02-21T12:17:43;7.38;;;2.70;;
43620;SDS011;29213;50.770;7.298;2024-02-21T12:20:09;7.30;;;3.00;;
43620;SDS011;29213;50.770;7.298;2024-02-21T12:22:38;7.00;;;2.90;;
43620;SDS011;29213;50.770;7.298;2024-02-21T12:25:04;6.25;;;2.70;;
43620;SDS011;29213;50.770;7.298;2024-02-21T12:27:30;8.00;;;2.92;;
43620;SDS011;29213;50.770;7.298;2024-02-21T12:29:55;8.52;;;2.92;;
43620;SDS011;29213;50.770;7.298;2024-02-21T12:32:21;7.60;;;2.95;;
43620;SDS011;29213;50.770;7.298;2024-02-21T12:34:46;7.80;;;3.00;;
43620;SDS011;29213;50.770;7.298;2024-02-21T12:37:12;13.73;;;3.35;;
43620;SDS011;29213;50.770;7.298;2024-02-21T12:39:38;7.32;;;3.10;;
43620;SDS011;29213;50.770;7.298;2024-02-21T12:42:04;10.13;;;3.03;;
43620;SDS011;29213;50.770;7.298;2024-02-21T12:44:29;7.63;;;2.95;;
43620;SDS011;29213;50.770;7.298;2024-02-21T12:46:54;7.50;;;3.20;;
43620;SDS011;29213;50.770;7.298;2024-02-21T12:49:20;8.32;;;3.08;;
43620;SDS011;29213;50.770;7.298;2024-02-21T12:51:45;7.78;;;2.75;;
43620;SDS011;29213;50.770;7.298;2024-02-21T12:54:14;6.18;;;2.75;;
43620;SDS011;29213;50.770;7.298;2024-02-21T12:56:39;10.43;;;2.90;;
43620;SDS011;29213;50.770;7.298;2024-02-21T12:59:05;7.13;;;2.78;;
43620;SDS011;29213;50.770;7.298;2024-02-21T13:01:34;8.30;;;3.10;;
43620;SDS011;29213;50.770;7.298;2024-02-21T13:04:00;8.93;;;3.33;;
43620;SDS011;29213;50.770;7.298;2024-02-21T13:06:26;7.65;;;2.95;;
43620;SDS011;29213;50.770;7.298;2024-02-21T13:08:52;8.00;;;3.08;;
43620;SDS011;29213;50.770;7.298;2024-02-21T13:11:18;8.20;;;2.97;;
43620;SDS011;29213;50.770;7.298;2024-02-21T13:13:44;7.28;;;2.75;;
43620;SDS011;29213;50.770;7.298;2024-02-21T13:16:09;9.10;;;3.03;;
43620;SDS011;29213;50.770;7.298;2024-02-21T13:18:35;8.38;;;2.70;;
43620;SDS011;29213;50.770;7.298;2024-02-21T13:21:03;6.97;;;3.00;;
43620;SDS011;29213;50.770;7.298;2024-02-21T13:23:29;8.75;;;2.97;;
43620;SDS011;29213;50.770;7.298;2024-02-21T13:25:54;8.25;;;2.78;;
43620;SDS011;29213;50.770;7.298;2024-02-21T13:28:20;7.65;;;3.17;;
43620;SDS011;29213;50.770;7.298;2024-02-21T13:30:45;8.32;;;2.90;;
43620;SDS011;29213;50.770;7.298;2024-02-21T13:33:11;7.07;;;3.05;;
43620;SDS011;29213;50.770;7.298;2024-02-21T13:35:37;8.90;;;3.00;;
43620;SDS011;29213;50.770;7.298;2024-02-21T13:38:04;7.65;;;2.67;;
43620;SDS011;29213;50.770;7.298;2024-02-21T13:40:29;9.07;;;3.33;;
43620;SDS011;29213;50.770;7.298;2024-02-21T13:42:55;8.00;;;2.90;;
43620;SDS011;29213;50.770;7.298;2024-02-21T13:45:20;7.00;;;2.78;;
43620;SDS011;29213;50.770;7.298;2024-02-21T13:47:46;7.80;;;2.70;;
43620;SDS011;29213;50.770;7.298;2024-02-21T13:50:13;8.45;;;2.75;;
43620;SDS011;29213;50.770;7.298;2024-02-21T13:52:39;10.00;;;3.00;;
43620;SDS011;29213;50.770;7.298;2024-02-21T13:55:05;7.88;;;2.97;;
43620;SDS011;29213;50.770;7.298;2024-02-21T13:57:34;6.88;;;2.92;;
43620;SDS011;29213;50.770;7.298;2024-02-21T14:00:00;7.32;;;2.50;;
43620;SDS011;29213;50.770;7.298;2024-02-21T14:02:26;11.07;;;3.60;;
43620;SDS011;29213;50.770;7.298;2024-02-21T14:04:51;8.18;;;2.60;;
43620;SDS011;29213;50.770;7.298;2024-02-21T14:07:17;8.70;;;3.00;;
43620;SDS011;29213;50.770;7.298;2024-02-21T14:09:42;8.10;;;2.55;;
43620;SDS011;29213;50.770;7.298;2024-02-21T14:12:08;6.25;;;2.40;;
43620;SDS011;29213;50.770;7.298;2024-02-21T14:14:34;9.73;;;2.83;;
43620;SDS011;29213;50.770;7.298;2024-02-21T14:17:01;7.38;;;2.60;;
43620;SDS011;29213;50.770;7.298;2024-02-21T14:19:27;7.25;;;2.80;;
43620;SDS011;29213;50.770;7.298;2024-02-21T14:21:52;9.05;;;2.78;;
43620;SDS011;29213;50.770;7.298;2024-02-21T14:24:18;8.57;;;2.70;;
43620;SDS011;29213;50.770;7.298;2024-02-21T14:26:43;7.05;;;2.42;;
43620;SDS011;29213;50.770;7.298;2024-02-21T14:29:09;9.63;;;3.30;;
43620;SDS011;29213;50.770;7.298;2024-02-21T14:31:34;5.95;;;2.35;;
43620;SDS011;29213;50.770;7.298;2024-02-21T14:34:00;6.88;;;2.50;;
43620;SDS011;29213;50.770;7.298;2024-02-21T14:36:27;6.57;;;2.55;;
43620;SDS011;29213;50.770;7.298;2024-02-21T14:38:52;4.85;;;2.00;;
43620;SDS011;29213;50.770;7.298;2024-02-21T14:41:18;8.60;;;2.60;;
43620;SDS011;29213;50.770;7.298;2024-02-21T14:43:44;6.60;;;2.25;;
43620;SDS011;29213;50.770;7.298;2024-02-21T14:46:09;7.90;;;2.28;;